createdAt,value
2018-03-14T00:00:46.140Z,6.84
2018-03-14T00:01:46.132Z,6.83
2018-03-14T00:02:46.192Z,6.81
2018-03-14T00:03:50.902Z,6.77
2018-03-14T00:04:46.153Z,6.78
2018-03-14T00:05:46.193Z,6.77
2018-03-14T00:06:46.166Z,6.78
2018-03-14T00:07:46.202Z,6.78
2018-03-14T00:08:46.236Z,6.77
2018-03-14T00:09:46.131Z,6.76
2018-03-14T00:10:46.173Z,6.74
2018-03-14T00:11:51.654Z,6.73
2018-03-14T00:12:46.171Z,6.72
2018-03-14T00:13:46.260Z,6.73
2018-03-14T00:14:46.846Z,6.71
2018-03-14T00:15:46.234Z,6.68
2018-03-14T00:16:46.198Z,6.63
2018-03-14T00:17:46.224Z,6.57
2018-03-14T00:18:46.219Z,6.6
2018-03-14T00:19:46.211Z,6.59
2018-03-14T00:20:46.211Z,6.61
2018-03-14T00:21:46.213Z,6.6
2018-03-14T00:22:46.237Z,6.59
2018-03-14T00:23:46.372Z,6.61
2018-03-14T00:24:46.207Z,6.61
2018-03-14T00:25:46.285Z,6.59
2018-03-14T00:26:46.745Z,6.62
2018-03-14T00:27:46.239Z,6.59
2018-03-14T00:28:46.843Z,6.59
2018-03-14T00:29:46.221Z,6.56
2018-03-14T00:30:46.288Z,6.53
2018-03-14T00:31:46.205Z,6.52
2018-03-14T00:32:46.216Z,6.45
2018-03-14T00:33:46.262Z,6.46
2018-03-14T00:34:48.192Z,6.47
2018-03-14T00:35:46.320Z,6.48
2018-03-14T00:36:46.352Z,6.44
2018-03-14T00:37:46.252Z,6.43
2018-03-14T00:38:46.281Z,6.37
2018-03-14T00:39:46.731Z,6.4
2018-03-14T00:40:46.312Z,6.38
2018-03-14T00:41:46.301Z,6.38
2018-03-14T00:42:48.635Z,6.36
2018-03-14T00:43:46.340Z,6.36
2018-03-14T00:44:47.500Z,6.34
2018-03-14T00:45:46.308Z,6.35
2018-03-14T00:46:46.314Z,6.36
2018-03-14T00:47:46.306Z,6.39
2018-03-14T00:48:46.306Z,6.42
2018-03-14T00:49:46.354Z,6.46
2018-03-14T00:50:50.748Z,6.43
2018-03-14T00:51:46.318Z,6.44
2018-03-14T00:52:46.289Z,6.49
2018-03-14T00:53:46.298Z,6.51
2018-03-14T00:54:46.292Z,6.54
2018-03-14T00:55:46.361Z,6.53
2018-03-14T00:56:46.328Z,6.54
2018-03-14T00:57:46.444Z,6.52
2018-03-14T00:58:52.021Z,6.48
2018-03-14T00:59:46.408Z,6.49
2018-03-14T01:00:46.408Z,6.51
2018-03-14T01:01:46.416Z,6.54
2018-03-14T01:02:46.371Z,6.47
2018-03-14T01:03:46.364Z,6.51
2018-03-14T01:04:46.367Z,6.46
2018-03-14T01:05:47.022Z,6.46
2018-03-14T01:06:46.417Z,6.48
2018-03-14T01:07:46.435Z,6.48
2018-03-14T01:08:46.370Z,6.53
2018-03-14T01:09:46.429Z,6.53
2018-03-14T01:10:46.424Z,6.57
2018-03-14T01:11:46.430Z,6.59
2018-03-14T01:12:46.420Z,6.61
2018-03-14T01:13:49.304Z,6.64
2018-03-14T01:14:46.498Z,6.62
2018-03-14T01:15:46.429Z,6.6
2018-03-14T01:16:46.425Z,6.61
2018-03-14T01:17:46.498Z,6.59
2018-03-14T01:18:46.416Z,6.58
2018-03-14T01:19:46.476Z,6.56
2018-03-14T01:20:46.470Z,6.57
2018-03-14T01:21:50.937Z,6.55
2018-03-14T01:22:46.434Z,6.56
2018-03-14T01:23:46.437Z,6.56
2018-03-14T01:24:46.437Z,6.57
2018-03-14T01:25:46.499Z,6.58
2018-03-14T01:26:46.438Z,6.46
2018-03-14T01:27:46.463Z,6.44
2018-03-14T01:28:46.494Z,6.44
2018-03-14T01:29:51.877Z,6.45
2018-03-14T01:30:46.431Z,6.42
2018-03-14T01:31:46.442Z,6.43
2018-03-14T01:32:46.432Z,6.44
2018-03-14T01:33:46.490Z,6.38
2018-03-14T01:34:46.497Z,6.38
2018-03-14T01:35:46.560Z,6.3
2018-03-14T01:36:46.644Z,6.19
2018-03-14T01:37:46.491Z,6.19
2018-03-14T01:38:46.477Z,6.18
2018-03-14T01:39:46.550Z,6.16
2018-03-14T01:40:46.498Z,6.18
2018-03-14T01:41:46.498Z,6.21
2018-03-14T01:42:46.480Z,6.24
2018-03-14T01:43:46.494Z,6.24
2018-03-14T01:44:47.591Z,6.23
2018-03-14T01:45:46.523Z,6.21
2018-03-14T01:46:46.496Z,6.24
2018-03-14T01:47:46.506Z,6.21
2018-03-14T01:48:46.561Z,6.24
2018-03-14T01:49:46.587Z,6.22
2018-03-14T01:50:46.557Z,6.21
2018-03-14T01:51:46.523Z,6.22
2018-03-14T01:52:49.959Z,6.23
2018-03-14T01:53:46.551Z,6.22
2018-03-14T01:54:46.495Z,6.23
2018-03-14T01:55:47.127Z,6.22
2018-03-14T01:56:46.522Z,6.25
2018-03-14T01:57:47.428Z,6.27
2018-03-14T01:58:46.460Z,6.29
2018-03-14T01:59:46.511Z,6.29
2018-03-14T02:00:47.389Z,6.31
2018-03-14T02:01:46.471Z,6.29
2018-03-14T02:02:46.489Z,6.3
2018-03-14T02:03:46.509Z,6.32
2018-03-14T02:04:46.541Z,6.33
2018-03-14T02:05:46.485Z,6.33
2018-03-14T02:06:46.504Z,6.33
2018-03-14T02:07:47.440Z,6.34
2018-03-14T02:08:46.510Z,6.29
2018-03-14T02:09:46.577Z,6.27
2018-03-14T02:10:46.540Z,6.28
2018-03-14T02:11:46.558Z,6.31
2018-03-14T02:12:46.538Z,6.35
2018-03-14T02:13:46.514Z,6.36
2018-03-14T02:14:46.595Z,6.4
2018-03-14T02:15:49.101Z,6.4
2018-03-14T02:16:46.538Z,6.4
2018-03-14T02:17:46.534Z,6.41
2018-03-14T02:18:46.560Z,6.4
2018-03-14T02:19:46.569Z,6.39
2018-03-14T02:20:46.557Z,6.41
2018-03-14T02:21:46.739Z,6.4
2018-03-14T02:22:46.584Z,6.35
2018-03-14T02:23:51.908Z,6.38
2018-03-14T02:24:46.546Z,6.36
2018-03-14T02:25:46.830Z,6.4
2018-03-14T02:26:46.611Z,6.4
2018-03-14T02:27:46.562Z,6.41
2018-03-14T02:28:46.580Z,6.4
2018-03-14T02:29:46.604Z,6.39
2018-03-14T02:30:47.029Z,6.41
2018-03-14T02:31:46.550Z,6.4
2018-03-14T02:32:46.580Z,6.41
2018-03-14T02:33:46.555Z,6.38
2018-03-14T02:34:46.576Z,6.41
2018-03-14T02:35:46.660Z,6.4
2018-03-14T02:36:46.605Z,6.41
2018-03-14T02:37:46.616Z,6.4
2018-03-14T02:38:49.924Z,6.42
2018-03-14T02:39:46.626Z,6.38
2018-03-14T02:40:46.640Z,6.34
2018-03-14T02:41:46.586Z,6.37
2018-03-14T02:42:46.627Z,6.34
2018-03-14T02:43:46.585Z,6.33
2018-03-14T02:44:46.498Z,6.32
2018-03-14T02:45:46.481Z,6.34
2018-03-14T02:46:46.681Z,6.32
2018-03-14T02:47:46.511Z,6.29
2018-03-14T02:48:46.508Z,6.28
2018-03-14T02:49:46.516Z,6.28
2018-03-14T02:50:46.521Z,6.28
2018-03-14T02:51:46.547Z,6.32
2018-03-14T02:52:46.548Z,6.31
2018-03-14T02:53:46.538Z,6.34
2018-03-14T02:54:46.539Z,6.36
2018-03-14T02:55:46.546Z,6.36
2018-03-14T02:56:46.563Z,6.37
2018-03-14T02:57:46.576Z,6.39
2018-03-14T02:58:46.576Z,6.41
2018-03-14T02:59:46.557Z,6.41
2018-03-14T03:00:46.567Z,6.4
2018-03-14T03:01:46.570Z,6.41
2018-03-14T03:02:46.564Z,6.42
2018-03-14T03:03:46.591Z,6.4
2018-03-14T03:04:46.571Z,6.41
2018-03-14T03:05:46.572Z,6.42
2018-03-14T03:06:46.584Z,6.41
2018-03-14T03:07:46.586Z,6.41
2018-03-14T03:08:46.612Z,6.44
2018-03-14T03:09:46.584Z,6.43
2018-03-14T03:10:46.603Z,6.45
2018-03-14T03:11:46.593Z,6.44
2018-03-14T03:12:46.884Z,6.45
2018-03-14T03:13:46.618Z,6.46
2018-03-14T03:14:46.604Z,6.46
2018-03-14T03:15:46.600Z,6.45
2018-03-14T03:16:46.595Z,6.46
2018-03-14T03:17:46.594Z,6.46
2018-03-14T03:18:46.614Z,6.46
2018-03-14T03:19:46.628Z,6.49
2018-03-14T03:20:46.627Z,6.47
2018-03-14T03:21:46.628Z,6.49
2018-03-14T03:22:46.624Z,6.47
2018-03-14T03:23:46.668Z,6.47
2018-03-14T03:24:46.622Z,6.49
2018-03-14T03:25:46.639Z,6.47
2018-03-14T03:26:46.650Z,6.48
2018-03-14T03:27:46.671Z,6.46
2018-03-14T03:28:46.708Z,6.51
2018-03-14T03:29:46.646Z,6.49
2018-03-14T03:30:46.697Z,6.51
2018-03-14T03:31:46.674Z,6.51
2018-03-14T03:32:46.672Z,6.52
2018-03-14T03:33:46.653Z,6.52
2018-03-14T03:34:46.675Z,6.49
2018-03-14T03:35:46.685Z,6.51
2018-03-14T03:36:46.675Z,6.47
2018-03-14T03:37:46.672Z,6.49
2018-03-14T03:38:46.938Z,6.48
2018-03-14T03:39:46.673Z,6.47
2018-03-14T03:40:46.682Z,6.46
2018-03-14T03:41:46.689Z,6.46
2018-03-14T03:42:46.705Z,6.47
2018-03-14T03:43:46.725Z,6.4
2018-03-14T03:44:46.694Z,6.38
2018-03-14T03:45:46.720Z,6.39
2018-03-14T03:46:46.719Z,6.36
2018-03-14T03:47:46.708Z,6.31
2018-03-14T03:48:46.708Z,6.29
2018-03-14T03:49:46.723Z,6.28
2018-03-14T03:50:46.730Z,6.28
2018-03-14T03:51:46.742Z,6.29
2018-03-14T03:52:46.722Z,6.27
2018-03-14T03:53:46.737Z,6.22
2018-03-14T03:54:46.736Z,6.22
2018-03-14T03:55:46.751Z,6.22
2018-03-14T03:56:46.761Z,6.23
2018-03-14T03:57:46.752Z,6.22
2018-03-14T03:58:46.767Z,6.22
2018-03-14T03:59:46.748Z,6.17
2018-03-14T04:00:46.764Z,6.16
2018-03-14T04:01:46.773Z,6.18
2018-03-14T04:02:46.764Z,6.18
2018-03-14T04:03:46.833Z,6.2
2018-03-14T04:04:46.822Z,6.22
2018-03-14T04:05:46.774Z,6.21
2018-03-14T04:06:46.792Z,6.21
2018-03-14T04:07:46.801Z,6.17
2018-03-14T04:08:46.783Z,6.16
2018-03-14T04:09:46.784Z,6.19
2018-03-14T04:10:46.784Z,6.17
2018-03-14T04:11:47.086Z,6.15
2018-03-14T04:12:46.793Z,6.12
2018-03-14T04:13:46.843Z,6.16
2018-03-14T04:14:46.798Z,6.15
2018-03-14T04:15:46.817Z,6.12
2018-03-14T04:16:46.879Z,6.14
2018-03-14T04:17:46.816Z,6.15
2018-03-14T04:18:46.824Z,6.14
2018-03-14T04:19:46.876Z,6.15
2018-03-14T04:20:46.838Z,6.16
2018-03-14T04:21:46.826Z,6.2
2018-03-14T04:22:46.841Z,6.21
2018-03-14T04:23:46.874Z,6.19
2018-03-14T04:24:46.869Z,6.17
2018-03-14T04:25:46.842Z,6.21
2018-03-14T04:26:46.861Z,6.22
2018-03-14T04:27:46.839Z,6.17
2018-03-14T04:28:46.852Z,6.16
2018-03-14T04:29:46.831Z,6.13
2018-03-14T04:30:46.904Z,6.13
2018-03-14T04:31:46.853Z,6.1
2018-03-14T04:32:46.855Z,6.11
2018-03-14T04:33:46.853Z,6.09
2018-03-14T04:34:46.842Z,6.08
2018-03-14T04:35:46.847Z,6.1
2018-03-14T04:36:46.872Z,6.08
2018-03-14T04:37:46.860Z,6.06
2018-03-14T04:38:46.870Z,6.04
2018-03-14T04:39:46.870Z,6.05
2018-03-14T04:40:46.862Z,6.07
2018-03-14T04:41:46.884Z,6.08
2018-03-14T04:42:46.886Z,6.07
2018-03-14T04:43:46.884Z,6.08
2018-03-14T04:44:46.888Z,6.09
2018-03-14T04:45:46.879Z,6.09
2018-03-14T04:46:47.129Z,6.1
2018-03-14T04:47:46.908Z,6.12
2018-03-14T04:48:46.905Z,6.12
2018-03-14T04:49:46.919Z,6.13
2018-03-14T04:50:46.926Z,6.15
2018-03-14T04:51:46.949Z,6.14
2018-03-14T04:52:46.926Z,6.14
2018-03-14T04:53:46.963Z,6.14
2018-03-14T04:54:46.927Z,6.15
2018-03-14T04:55:46.927Z,6.14
2018-03-14T04:56:46.944Z,6.15
2018-03-14T04:57:46.932Z,6.15
2018-03-14T04:58:46.961Z,6.14
2018-03-14T04:59:46.940Z,6.14
2018-03-14T05:00:46.957Z,6.11
2018-03-14T05:01:46.949Z,6.09
2018-03-14T05:02:46.974Z,6.04
2018-03-14T05:03:46.965Z,6.06
2018-03-14T05:04:46.955Z,6.05
2018-03-14T05:05:46.928Z,6.08
2018-03-14T05:06:46.953Z,6.08
2018-03-14T05:07:46.951Z,6.06
2018-03-14T05:08:46.935Z,6.08
2018-03-14T05:09:46.950Z,6.08
2018-03-14T05:10:46.950Z,6.08
2018-03-14T05:11:46.958Z,6.07
2018-03-14T05:12:47.017Z,6.05
2018-03-14T05:13:46.970Z,6.06
2018-03-14T05:14:46.948Z,6.05
2018-03-14T05:15:46.965Z,6.08
2018-03-14T05:16:46.963Z,6.08
2018-03-14T05:17:46.968Z,6.08
2018-03-14T05:18:46.997Z,6.08
2018-03-14T05:19:47.007Z,6.09
2018-03-14T05:20:47.010Z,6.05
2018-03-14T05:21:47.008Z,6.07
2018-03-14T05:22:46.991Z,6.05
2018-03-14T05:23:46.997Z,6.07
2018-03-14T05:24:46.993Z,6.04
2018-03-14T05:25:46.990Z,6.05
2018-03-14T05:26:47.420Z,6.05
2018-03-14T05:27:46.989Z,6.04
2018-03-14T05:28:47.135Z,5.97
2018-03-14T05:29:47.009Z,5.97
2018-03-14T05:30:47.025Z,5.97
2018-03-14T05:31:47.032Z,5.99
2018-03-14T05:32:47.004Z,5.99
2018-03-14T05:33:47.012Z,6.01
2018-03-14T05:34:47.172Z,6.01
2018-03-14T05:35:47.033Z,6.02
2018-03-14T05:36:47.032Z,6.02
2018-03-14T05:37:47.045Z,6.01
2018-03-14T05:38:47.048Z,6.03
2018-03-14T05:39:47.044Z,6.03
2018-03-14T05:40:47.023Z,6.03
2018-03-14T05:41:47.041Z,6.03
2018-03-14T05:42:47.041Z,6.04
2018-03-14T05:43:47.042Z,6.05
2018-03-14T05:44:47.050Z,6.04
2018-03-14T05:45:47.078Z,6.03
2018-03-14T05:46:47.075Z,6.06
2018-03-14T05:47:47.456Z,6.06
2018-03-14T05:48:47.086Z,6.07
2018-03-14T05:49:47.079Z,6.05
2018-03-14T05:50:47.100Z,6.08
2018-03-14T05:51:47.092Z,6.08
2018-03-14T05:52:47.097Z,6.09
2018-03-14T05:53:47.265Z,6.09
2018-03-14T05:54:47.095Z,6.1
2018-03-14T05:55:47.098Z,6.12
2018-03-14T05:56:47.142Z,6.12
2018-03-14T05:57:47.106Z,6.14
2018-03-14T05:58:47.120Z,6.15
2018-03-14T05:59:47.116Z,6.16
2018-03-14T06:00:47.125Z,6.15
2018-03-14T06:01:47.121Z,6.15
2018-03-14T06:02:47.139Z,6.15
2018-03-14T06:03:47.130Z,6.15
2018-03-14T06:04:47.208Z,6.15
2018-03-14T06:05:47.138Z,6.15
2018-03-14T06:06:47.112Z,6.14
2018-03-14T06:07:47.138Z,6.11
2018-03-14T06:08:47.144Z,6.09
2018-03-14T06:09:47.152Z,6.09
2018-03-14T06:10:47.144Z,6.09
2018-03-14T06:11:47.160Z,6.09
2018-03-14T06:12:47.153Z,6.07
2018-03-14T06:13:47.168Z,6.08
2018-03-14T06:14:47.254Z,6.08
2018-03-14T06:15:47.189Z,6.08
2018-03-14T06:16:47.224Z,6.08
2018-03-14T06:17:47.183Z,6.09
2018-03-14T06:18:47.205Z,6.09
2018-03-14T06:19:47.273Z,6.1
2018-03-14T06:20:47.258Z,6.1
2018-03-14T06:21:47.199Z,6.13
2018-03-14T06:22:47.197Z,6.13
2018-03-14T06:23:47.210Z,6.15
2018-03-14T06:24:47.249Z,6.15
2018-03-14T06:25:47.207Z,6.15
2018-03-14T06:26:47.232Z,6.16
2018-03-14T06:27:47.239Z,6.16
2018-03-14T06:28:47.235Z,6.16
2018-03-14T06:29:47.488Z,6.14
2018-03-14T06:30:47.265Z,6.14
2018-03-14T06:31:47.220Z,6.14
2018-03-14T06:32:47.237Z,6.15
2018-03-14T06:33:47.282Z,6.14
2018-03-14T06:34:47.277Z,6.15
2018-03-14T06:35:47.280Z,6.13
2018-03-14T06:36:47.257Z,6.15
2018-03-14T06:37:47.280Z,6.15
2018-03-14T06:38:47.321Z,6.15
2018-03-14T06:39:47.279Z,6.15
2018-03-14T06:40:47.287Z,6.15
2018-03-14T06:41:47.260Z,6.15
2018-03-14T06:42:47.288Z,6.16
2018-03-14T06:43:47.269Z,6.16
2018-03-14T06:44:47.265Z,6.15
2018-03-14T06:45:47.311Z,6.16
2018-03-14T06:46:47.306Z,6.15
2018-03-14T06:47:47.301Z,6.16
2018-03-14T06:48:47.340Z,6.16
2018-03-14T06:49:47.305Z,6.16
2018-03-14T06:50:47.297Z,6.17
2018-03-14T06:51:47.304Z,6.2
2018-03-14T06:52:47.310Z,6.21
2018-03-14T06:53:47.349Z,6.21
2018-03-14T06:54:47.336Z,6.21
2018-03-14T06:55:47.362Z,6.23
2018-03-14T06:56:47.339Z,6.24
2018-03-14T06:57:47.419Z,6.26
2018-03-14T06:58:47.335Z,6.27
2018-03-14T06:59:47.323Z,6.28
2018-03-14T07:00:47.325Z,6.28
2018-03-14T07:01:47.430Z,6.27
2018-03-14T07:02:47.335Z,6.26
2018-03-14T07:03:47.352Z,6.26
2018-03-14T07:04:47.342Z,6.23
2018-03-14T07:05:47.457Z,6.21
2018-03-14T07:06:47.370Z,6.21
2018-03-14T07:07:47.363Z,6.23
2018-03-14T07:08:47.394Z,6.23
2018-03-14T07:09:47.358Z,6.27
2018-03-14T07:10:47.375Z,6.25
2018-03-14T07:11:47.419Z,6.27
2018-03-14T07:12:47.362Z,6.29
2018-03-14T07:13:47.402Z,6.29
2018-03-14T07:14:47.394Z,6.3
2018-03-14T07:15:47.384Z,6.3
2018-03-14T07:16:47.453Z,6.33
2018-03-14T07:17:47.393Z,6.34
2018-03-14T07:18:47.404Z,6.34
2018-03-14T07:19:47.437Z,6.36
2018-03-14T07:20:47.400Z,6.39
2018-03-14T07:21:47.404Z,6.39
2018-03-14T07:22:47.431Z,6.36
2018-03-14T07:23:47.403Z,6.38
2018-03-14T07:24:47.438Z,6.37
2018-03-14T07:25:47.413Z,6.41
2018-03-14T07:26:47.434Z,6.41
2018-03-14T07:27:47.448Z,6.41
2018-03-14T07:28:47.423Z,6.43
2018-03-14T07:29:47.429Z,6.45
2018-03-14T07:30:47.439Z,6.46
2018-03-14T07:31:47.469Z,6.46
2018-03-14T07:32:47.469Z,6.47
2018-03-14T07:33:47.476Z,6.48
2018-03-14T07:34:47.443Z,6.49
2018-03-14T07:35:47.461Z,6.51
2018-03-14T07:36:47.478Z,6.48
2018-03-14T07:37:47.525Z,6.52
2018-03-14T07:38:47.469Z,6.52
2018-03-14T07:39:47.493Z,6.53
2018-03-14T07:40:47.470Z,6.55
2018-03-14T07:41:47.461Z,6.56
2018-03-14T07:42:47.494Z,6.58
2018-03-14T07:43:47.473Z,6.59
2018-03-14T07:44:47.470Z,6.6
2018-03-14T07:45:47.468Z,6.61
2018-03-14T07:46:47.465Z,6.62
2018-03-14T07:47:47.529Z,6.65
2018-03-14T07:48:47.520Z,6.65
2018-03-14T07:49:47.494Z,6.66
2018-03-14T07:50:47.502Z,6.66
2018-03-14T07:51:47.496Z,6.69
2018-03-14T07:52:47.508Z,6.68
2018-03-14T07:53:47.510Z,6.69
2018-03-14T07:54:47.507Z,6.7
2018-03-14T07:55:47.510Z,6.7
2018-03-14T07:56:47.532Z,6.7
2018-03-14T07:57:47.522Z,6.69
2018-03-14T07:58:47.570Z,6.69
2018-03-14T07:59:47.571Z,6.7
2018-03-14T08:00:47.536Z,6.69
2018-03-14T08:01:47.538Z,6.71
2018-03-14T08:02:47.580Z,6.71
2018-03-14T08:03:47.558Z,6.73
2018-03-14T08:04:47.548Z,6.74
2018-03-14T08:05:47.871Z,6.77
2018-03-14T08:06:47.637Z,6.8
2018-03-14T08:07:47.540Z,6.8
2018-03-14T08:08:47.591Z,6.78
2018-03-14T08:09:47.556Z,6.79
2018-03-14T08:10:47.568Z,6.82
2018-03-14T08:11:47.561Z,6.84
2018-03-14T08:12:47.612Z,6.86
2018-03-14T08:13:49.742Z,6.9
2018-03-14T08:14:47.583Z,6.93
2018-03-14T08:15:47.597Z,6.96
2018-03-14T08:16:47.593Z,6.98
2018-03-14T08:17:47.574Z,7.01
2018-03-14T08:18:47.589Z,7.01
2018-03-14T08:19:47.579Z,7.05
2018-03-14T08:20:47.587Z,7.06
2018-03-14T08:21:47.661Z,7.08
2018-03-14T08:22:47.592Z,7.1
2018-03-14T08:23:47.600Z,7.12
2018-03-14T08:24:47.601Z,7.13
2018-03-14T08:25:47.610Z,7.12
2018-03-14T08:26:47.638Z,7.12
2018-03-14T08:27:48.005Z,7.12
2018-03-14T08:28:47.636Z,7.17
2018-03-14T08:29:47.605Z,7.19
2018-03-14T08:30:47.632Z,7.2
2018-03-14T08:31:47.661Z,7.25
2018-03-14T08:32:47.613Z,7.26
2018-03-14T08:33:47.625Z,7.25
2018-03-14T08:34:47.625Z,7.24
2018-03-14T08:35:47.613Z,7.25
2018-03-14T08:36:47.621Z,7.29
2018-03-14T08:37:47.648Z,7.28
2018-03-14T08:38:47.662Z,7.31
2018-03-14T08:39:47.637Z,7.35
2018-03-14T08:40:47.624Z,7.37
2018-03-14T08:41:47.662Z,7.41
2018-03-14T08:42:47.640Z,7.47
2018-03-14T08:43:47.670Z,7.47
2018-03-14T08:44:47.632Z,7.51
2018-03-14T08:45:47.665Z,7.56
2018-03-14T08:46:47.996Z,7.57
2018-03-14T08:47:47.661Z,7.57
2018-03-14T08:48:47.661Z,7.59
2018-03-14T08:49:47.686Z,7.65
2018-03-14T08:50:47.673Z,7.65
2018-03-14T08:51:47.677Z,7.65
2018-03-14T08:52:47.666Z,7.65
2018-03-14T08:53:47.675Z,7.66
2018-03-14T08:54:47.696Z,7.71
2018-03-14T08:55:48.213Z,7.73
2018-03-14T08:56:47.791Z,7.75
2018-03-14T08:57:47.688Z,7.77
2018-03-14T08:58:47.701Z,7.83
2018-03-14T08:59:47.704Z,7.84
2018-03-14T09:00:47.692Z,7.85
2018-03-14T09:01:47.710Z,7.88
2018-03-14T09:02:47.704Z,7.87
2018-03-14T09:03:47.797Z,7.88
2018-03-14T09:04:47.777Z,7.84
2018-03-14T09:05:47.716Z,7.84
2018-03-14T09:06:47.710Z,7.82
2018-03-14T09:07:47.799Z,7.76
2018-03-14T09:08:47.716Z,7.76
2018-03-14T09:09:47.776Z,7.73
2018-03-14T09:10:47.833Z,7.77
2018-03-14T09:11:47.835Z,7.78
2018-03-14T09:12:47.768Z,7.8
2018-03-14T09:13:47.807Z,7.83
2018-03-14T09:14:47.757Z,7.82
2018-03-14T09:15:47.759Z,7.82
2018-03-14T09:16:47.783Z,7.84
2018-03-14T09:17:47.801Z,7.85
2018-03-14T09:18:48.397Z,7.94
2018-03-14T09:19:47.824Z,7.99
2018-03-14T09:20:47.781Z,7.98
2018-03-14T09:21:47.758Z,8.02
2018-03-14T09:22:47.809Z,8.04
2018-03-14T09:23:47.796Z,8.1
2018-03-14T09:24:47.827Z,8.19
2018-03-14T09:25:47.815Z,8.21
2018-03-14T09:26:47.814Z,8.28
2018-03-14T09:27:47.798Z,8.35
2018-03-14T09:28:47.807Z,8.33
2018-03-14T09:29:47.870Z,8.32
2018-03-14T09:30:47.814Z,8.33
2018-03-14T09:31:48.341Z,8.31
2018-03-14T09:32:47.842Z,8.3
2018-03-14T09:33:47.810Z,8.32
2018-03-14T09:34:47.875Z,8.31
2018-03-14T09:35:47.833Z,8.31
2018-03-14T09:36:47.864Z,8.31
2018-03-14T09:37:48.511Z,8.25
2018-03-14T09:38:47.883Z,8.21
2018-03-14T09:39:48.366Z,8.22
2018-03-14T09:40:47.936Z,8.2
2018-03-14T09:41:48.019Z,8.21
2018-03-14T09:42:47.951Z,8.21
2018-03-14T09:43:47.932Z,8.17
2018-03-14T09:44:48.045Z,8.17
2018-03-14T09:45:47.911Z,8.16
2018-03-14T09:46:47.900Z,8.16
2018-03-14T09:47:47.892Z,8.19
2018-03-14T09:48:47.947Z,8.22
2018-03-14T09:49:47.944Z,8.31
2018-03-14T09:50:47.888Z,8.32
2018-03-14T09:51:47.936Z,8.38
2018-03-14T09:52:47.930Z,8.46
2018-03-14T09:53:47.938Z,8.56
2018-03-14T09:54:47.949Z,8.67
2018-03-14T09:55:47.939Z,8.7
2018-03-14T09:56:48.030Z,8.65
2018-03-14T09:57:48.026Z,8.64
2018-03-14T09:58:47.949Z,8.63
2018-03-14T09:59:47.960Z,8.64
2018-03-14T10:00:48.398Z,8.65
2018-03-14T10:01:47.942Z,8.63
2018-03-14T10:02:49.107Z,8.64
2018-03-14T10:03:47.949Z,8.63
2018-03-14T10:04:47.940Z,8.62
2018-03-14T10:05:47.966Z,8.62
2018-03-14T10:06:47.971Z,8.64
2018-03-14T10:07:47.965Z,8.66
2018-03-14T10:08:47.971Z,8.65
2018-03-14T10:09:48.019Z,8.69
2018-03-14T10:10:48.041Z,8.7
2018-03-14T10:11:47.968Z,8.76
2018-03-14T10:12:48.099Z,8.85
2018-03-14T10:13:47.968Z,8.91
2018-03-14T10:14:48.041Z,8.97
2018-03-14T10:15:48.037Z,9.02
2018-03-14T10:16:48.148Z,9.03
2018-03-14T10:17:48.036Z,9.07
2018-03-14T10:18:48.083Z,9.07
2018-03-14T10:19:48.067Z,9.13
2018-03-14T10:20:47.986Z,9.03
2018-03-14T10:21:48.366Z,9
2018-03-14T10:22:48.032Z,8.95
2018-03-14T10:23:49.026Z,8.91
2018-03-14T10:24:47.988Z,8.86
2018-03-14T10:25:49.518Z,8.84
2018-03-14T10:26:48.095Z,8.87
2018-03-14T10:27:48.136Z,8.88
2018-03-14T10:28:48.617Z,8.93
2018-03-14T10:29:48.052Z,8.96
2018-03-14T10:30:48.074Z,8.99
2018-03-14T10:31:48.074Z,8.99
2018-03-14T10:32:48.096Z,8.97
2018-03-14T10:33:48.056Z,8.99
2018-03-14T10:34:48.053Z,9.05
2018-03-14T10:35:48.087Z,9.11
2018-03-14T10:36:48.910Z,9.12
2018-03-14T10:37:48.120Z,9.12
2018-03-14T10:38:48.100Z,9.14
2018-03-14T10:39:48.079Z,9.17
2018-03-14T10:40:48.316Z,9.14
2018-03-14T10:41:48.094Z,9.11
2018-03-14T10:42:48.095Z,9.13
2018-03-14T10:43:48.124Z,9.09
2018-03-14T10:44:48.685Z,9.13
2018-03-14T10:45:48.103Z,9.12
2018-03-14T10:46:48.098Z,9.15
2018-03-14T10:47:48.723Z,9.17
2018-03-14T10:48:49.114Z,9.15
2018-03-14T10:49:48.141Z,9.26
2018-03-14T10:50:48.130Z,9.31
2018-03-14T10:51:48.130Z,9.37
2018-03-14T10:52:48.128Z,9.44
2018-03-14T10:53:48.154Z,9.54
2018-03-14T10:54:48.140Z,9.61
2018-03-14T10:55:48.140Z,9.67
2018-03-14T10:56:48.108Z,9.71
2018-03-14T10:57:48.127Z,9.71
2018-03-14T10:58:49.713Z,9.8
2018-03-14T10:59:48.149Z,9.89
2018-03-14T11:00:48.219Z,9.93
2018-03-14T11:01:48.763Z,9.96
2018-03-14T11:02:48.370Z,9.97
2018-03-14T11:03:48.245Z,9.97
2018-03-14T11:04:48.359Z,10.05
2018-03-14T11:05:48.259Z,10.11
2018-03-14T11:06:48.148Z,10.21
2018-03-14T11:07:48.883Z,10.28
2018-03-14T11:08:48.156Z,10.24
2018-03-14T11:09:48.175Z,10.32
2018-03-14T11:10:48.323Z,10.28
2018-03-14T11:11:48.151Z,10.33
2018-03-14T11:12:48.123Z,10.23
2018-03-14T11:13:48.138Z,10.26
2018-03-14T11:14:48.152Z,10.27
2018-03-14T11:15:48.142Z,10.33
2018-03-14T11:16:48.157Z,10.35
2018-03-14T11:17:48.160Z,10.3
2018-03-14T11:18:48.229Z,10.32
2018-03-14T11:19:48.183Z,10.27
2018-03-14T11:20:48.190Z,10.18
2018-03-14T11:21:48.174Z,10.14
2018-03-14T11:22:48.184Z,10
2018-03-14T11:23:48.304Z,10.02
2018-03-14T11:24:48.184Z,10.02
2018-03-14T11:25:48.197Z,10
2018-03-14T11:26:48.233Z,9.95
2018-03-14T11:27:48.270Z,9.99
2018-03-14T11:28:48.199Z,10.01
2018-03-14T11:29:48.211Z,10.02
2018-03-14T11:30:48.204Z,10.08
2018-03-14T11:31:48.207Z,10.09
2018-03-14T11:32:48.202Z,10.09
2018-03-14T11:33:48.237Z,10.07
2018-03-14T11:34:48.219Z,10.01
2018-03-14T11:35:48.228Z,10.06
2018-03-14T11:36:48.231Z,10.03
2018-03-14T11:37:48.223Z,10.01
2018-03-14T11:38:48.236Z,9.97
2018-03-14T11:39:48.251Z,10.03
2018-03-14T11:40:48.278Z,10.06
2018-03-14T11:41:48.231Z,10
2018-03-14T11:42:48.236Z,10.07
2018-03-14T11:43:48.296Z,10.17
2018-03-14T11:44:48.271Z,10.22
2018-03-14T11:45:48.267Z,10.24
2018-03-14T11:46:48.322Z,10.22
2018-03-14T11:47:48.272Z,10.25
2018-03-14T11:48:48.290Z,10.29
2018-03-14T11:49:48.274Z,10.27
2018-03-14T11:50:48.278Z,10.21
2018-03-14T11:51:48.292Z,10.29
2018-03-14T11:52:48.283Z,10.34
2018-03-14T11:53:48.274Z,10.46
2018-03-14T11:54:48.872Z,10.59
2018-03-14T11:55:48.292Z,10.73
2018-03-14T11:56:48.308Z,10.9
2018-03-14T11:57:48.305Z,11.05
2018-03-14T11:58:48.287Z,11.15
2018-03-14T11:59:48.293Z,11.11
2018-03-14T12:00:48.305Z,10.98
2018-03-14T12:01:49.318Z,11.01
2018-03-14T12:02:48.451Z,10.98
2018-03-14T12:03:48.327Z,10.9
2018-03-14T12:04:48.320Z,10.94
2018-03-14T12:05:48.349Z,11
2018-03-14T12:06:48.347Z,11.06
2018-03-14T12:07:48.344Z,11.08
2018-03-14T12:08:48.330Z,11.15
2018-03-14T12:09:48.375Z,11.15
2018-03-14T12:10:48.333Z,11.13
2018-03-14T12:11:52.715Z,11.03
2018-03-14T12:12:48.346Z,11.04
2018-03-14T12:13:48.345Z,10.97
2018-03-14T12:14:48.335Z,10.91
2018-03-14T12:15:48.371Z,10.93
2018-03-14T12:16:48.350Z,10.8
2018-03-14T12:17:48.353Z,10.79
2018-03-14T12:18:49.590Z,10.72
2018-03-14T12:19:48.742Z,10.6
2018-03-14T12:20:48.343Z,10.62
2018-03-14T12:21:48.415Z,10.56
2018-03-14T12:22:48.352Z,10.67
2018-03-14T12:23:49.569Z,10.75
2018-03-14T12:24:48.421Z,10.87
2018-03-14T12:25:48.356Z,11
2018-03-14T12:26:49.030Z,11.02
2018-03-14T12:27:50.864Z,11.11
2018-03-14T12:28:48.350Z,11.02
2018-03-14T12:29:48.383Z,11.09
2018-03-14T12:30:48.792Z,11.08
2018-03-14T12:31:49.625Z,10.94
2018-03-14T12:32:48.388Z,10.94
2018-03-14T12:33:48.393Z,11.02
2018-03-14T12:34:49.108Z,11.01
2018-03-14T12:35:48.444Z,10.92
2018-03-14T12:36:48.381Z,10.97
2018-03-14T12:37:48.394Z,10.83
2018-03-14T12:38:48.410Z,10.84
2018-03-14T12:39:51.768Z,10.86
2018-03-14T12:40:56.908Z,10.83
2018-03-14T12:41:50.156Z,10.86
2018-03-14T12:42:51.452Z,10.83
2018-03-14T12:43:50.999Z,10.85
2018-03-14T12:44:51.666Z,10.9
2018-03-14T12:45:51.090Z,10.9
2018-03-14T12:46:51.393Z,10.88
2018-03-14T12:47:49.631Z,10.82
2018-03-14T12:48:51.685Z,10.76
2018-03-14T12:49:52.637Z,10.68
2018-03-14T12:50:52.884Z,10.69
2018-03-14T12:51:50.133Z,10.67
2018-03-14T12:52:49.583Z,10.6
2018-03-14T12:53:54.379Z,10.63
2018-03-14T12:54:50.288Z,10.61
2018-03-14T12:55:50.823Z,10.52
2018-03-14T12:56:48.415Z,10.51
2018-03-14T12:57:48.468Z,10.49
2018-03-14T12:58:48.470Z,10.44
2018-03-14T12:59:48.449Z,10.44
2018-03-14T13:00:48.425Z,10.43
2018-03-14T13:01:48.449Z,10.46
2018-03-14T13:02:48.423Z,10.53
2018-03-14T13:03:48.428Z,10.58
2018-03-14T13:04:48.454Z,10.63
2018-03-14T13:05:48.449Z,10.65
2018-03-14T13:06:48.437Z,10.64
2018-03-14T13:07:48.470Z,10.68
2018-03-14T13:08:48.439Z,10.69
2018-03-14T13:09:48.457Z,10.76
2018-03-14T13:10:48.464Z,10.8
2018-03-14T13:11:48.865Z,10.84
2018-03-14T13:12:48.495Z,10.97
2018-03-14T13:13:48.476Z,11.03
2018-03-14T13:14:48.487Z,11.1
2018-03-14T13:15:53.544Z,11.19
2018-03-14T13:16:48.469Z,11.28